Monday, February 19, 2018, 10:01 AM GMT
Back to Local

CWJB, Ste Foy CS , Que.

Location: , , Canada Lat: 47.3
Local Time: 10:01 AM GMT (10:01 GMT) Lon: -71.267
Time Zone: GMT Elev: 298 ft

Show me the last for .
Show Coded

Time T Td Feel RH Dir Speed Gust Alt SLP Vis Weather Sky Remarks
2018-02-19 09:00 18 - - 0 320° 2 - - - 0 None
2018-02-19 08:00 18 - - 0 - Calm - - - 0 None
2018-02-19 07:00 17 - - 0 220° 1 - - - 0 None
2018-02-19 06:00 17 - - 0 - Calm - - - 0 None
2018-02-19 05:00 21 - - 0 210° 2 - - - 0 None
2018-02-19 04:00 26 - 22 0 220° 3 - - - 0 None
2018-02-19 03:00 26 - 20 0 220° 5 - - - 0 None
2018-02-19 02:00 26 - 21 0 220° 5 - - - 0 None
2018-02-19 01:00 27 - 22 0 220° 5 - - - 0 None
2018-02-19 00:00 28 - 23 0 210° 5 - - - 0 None
2018-02-18 23:00 31 - 23 0 220° 9 - - - 0 None
2018-02-18 22:00 32 - 27 0 210° 5 - - - 0 None
2018-02-18 21:00 34 - 31 0 340° 3 - - - 0 None
2018-02-18 20:00 31 - 25 0 210° 7 - - - 0 Peak wind: 19 mph (17 kts) from 220° at 01 min
2018-02-18 19:00 30 - 22 0 210° 9 - - - 0 None
2018-02-18 18:00 29 - 17 0 220° 12 18 - - 0 Peak wind: 19 mph (17 kts) from 200° at 13 min
2018-02-18 17:00 28 - 15 0 220° 10 18 - - 0 None
2018-02-18 16:00 26 - 18 0 220° 8 - - - 0 None
2018-02-18 15:00 25 - 16 0 220° 9 - - - 0 1-hr Precip Total: 0.05"
2018-02-18 14:00 24 - 15 0 220° 8 - - - 0 None
2018-02-18 13:00 23 - 17 0 220° 5 - - - 0 None
2018-02-18 12:00 21 - - 0 270° 1 - - - 0 None
2018-02-18 11:00 21 - - 0 330° 1 - - - 0 None

Support USWX by starting your Amazon purchase here.